createdAt,value
2022-10-31T00:01:01.094Z,10.94
2022-10-31T00:06:02.855Z,10.91
2022-10-31T00:11:04.626Z,10.79
2022-10-31T00:16:14.134Z,10.63
2022-10-31T00:21:17.031Z,10.67
2022-10-31T00:26:18.953Z,10.55
2022-10-31T00:31:20.620Z,10.48
2022-10-31T00:36:22.363Z,10.55
2022-10-31T00:41:24.112Z,10.51
2022-10-31T00:46:25.882Z,10.46
2022-10-31T00:51:28.924Z,10.39
2022-10-31T00:56:30.686Z,10.42
2022-10-31T01:01:33.780Z,10.36
2022-10-31T01:06:36.426Z,10.56
2022-10-31T01:11:38.082Z,10.49
2022-10-31T01:16:42.625Z,10.52
2022-10-31T01:21:44.298Z,10.41
2022-10-31T01:26:45.901Z,10.24
2022-10-31T01:31:47.537Z,10.18
2022-10-31T01:36:52.433Z,10.23
2022-10-31T01:41:57.771Z,10.29
2022-10-31T01:47:06.244Z,10.34
2022-10-31T01:52:19.936Z,10.16
2022-10-31T01:57:22.940Z,10.24
2022-10-31T02:02:29.419Z,10.17
2022-10-31T02:07:38.538Z,10.10
2022-10-31T02:12:41.229Z,10.05
2022-10-31T02:17:42.902Z,10.22
2022-10-31T02:23:19.328Z,10.31
2022-10-31T02:28:43.152Z,10.32
2022-10-31T02:33:55.984Z,10.34
2022-10-31T02:39:11.685Z,10.27
2022-10-31T02:44:29.607Z,10.17
2022-10-31T02:49:47.583Z,10.21
2022-10-31T02:54:50.901Z,10.23
2022-10-31T02:59:58.082Z,10.24
2022-10-31T03:05:27.744Z,10.28
2022-10-31T03:10:54.468Z,10.32
2022-10-31T03:16:06.311Z,10.29
2022-10-31T03:21:19.489Z,10.35
2022-10-31T03:26:24.927Z,10.36
2022-10-31T03:31:36.782Z,10.36
2022-10-31T03:36:42.590Z,10.27
2022-10-31T03:41:50.033Z,10.24
2022-10-31T03:46:52.022Z,10.06
2022-10-31T03:52:24.656Z,10.12
2022-10-31T03:57:52.803Z,10.17
2022-10-31T04:03:07.120Z,10.20
2022-10-31T04:08:16.466Z,10.13
2022-10-31T04:13:27.059Z,10.13
2022-10-31T04:18:37.100Z,10.12
2022-10-31T04:23:39.080Z,10.07
2022-10-31T04:28:51.453Z,10.11
2022-10-31T04:33:53.262Z,10.12
2022-10-31T04:38:54.971Z,10.04
2022-10-31T04:44:21.800Z,9.89
2022-10-31T04:49:27.145Z,9.63
2022-10-31T04:54:29.388Z,9.50
2022-10-31T05:00:03.035Z,9.52
2022-10-31T05:05:07.268Z,9.44
2022-10-31T05:10:12.321Z,9.48
2022-10-31T05:15:14.969Z,9.54
2022-10-31T05:20:48.763Z,9.57
2022-10-31T05:25:57.537Z,9.47
2022-10-31T05:30:59.403Z,9.41
2022-10-31T05:36:01.337Z,9.42
2022-10-31T05:41:08.389Z,9.51
2022-10-31T05:46:10.092Z,9.53
2022-10-31T05:51:32.080Z,9.47
2022-10-31T05:56:33.798Z,9.34
2022-10-31T06:01:40.263Z,9.37
2022-10-31T06:06:51.422Z,9.42
2022-10-31T06:11:53.335Z,9.44
2022-10-31T06:17:01.013Z,9.55
2022-10-31T06:22:40.943Z,9.53
2022-10-31T06:27:42.661Z,9.46
2022-10-31T06:32:50.437Z,9.48
2022-10-31T06:37:55.987Z,9.44
2022-10-31T06:43:12.325Z,9.45
2022-10-31T06:48:18.018Z,9.54
2022-10-31T06:53:46.567Z,9.57
2022-10-31T06:58:51.120Z,9.66
2022-10-31T07:04:01.715Z,9.73
2022-10-31T07:09:06.721Z,9.74
2022-10-31T07:14:08.519Z,9.73
2022-10-31T07:19:10.415Z,9.65
2022-10-31T07:24:12.703Z,9.76
2022-10-31T07:29:17.205Z,9.78
2022-10-31T07:34:19.012Z,9.79
2022-10-31T07:39:44.226Z,9.77
2022-10-31T07:44:46.160Z,9.72
2022-10-31T07:49:59.727Z,9.64
2022-10-31T07:55:20.073Z,9.63
2022-10-31T08:00:23.752Z,9.68
2022-10-31T08:05:25.976Z,9.78
2022-10-31T08:10:47.989Z,9.88
2022-10-31T08:15:54.796Z,9.84
2022-10-31T08:21:01.423Z,10.00
2022-10-31T08:26:03.141Z,10.05
2022-10-31T08:31:06.785Z,10.16
2022-10-31T08:36:14.181Z,10.35
2022-10-31T08:41:27.584Z,10.36
2022-10-31T08:46:29.374Z,10.40
2022-10-31T08:51:31.171Z,10.69
2022-10-31T08:56:32.999Z,10.86
2022-10-31T09:01:38.820Z,10.94
2022-10-31T09:06:50.291Z,11.11
2022-10-31T09:11:58.036Z,11.27
2022-10-31T09:17:38.038Z,11.41
2022-10-31T09:23:25.280Z,11.49
2022-10-31T09:28:27.231Z,11.59
2022-10-31T09:33:33.044Z,11.66
2022-10-31T09:38:54.563Z,11.63
2022-10-31T09:44:12.832Z,11.59
2022-10-31T09:49:36.672Z,11.64
2022-10-31T09:54:47.380Z,11.80
2022-10-31T09:59:50.588Z,12.08
2022-10-31T10:05:02.717Z,12.16
2022-10-31T10:10:41.232Z,12.27
2022-10-31T10:16:34.405Z,12.36
2022-10-31T10:21:48.270Z,12.39
2022-10-31T10:27:02.231Z,12.46
2022-10-31T10:32:13.936Z,12.59
2022-10-31T10:37:29.335Z,12.63
2022-10-31T10:42:49.629Z,12.68
2022-10-31T10:48:06.457Z,12.79
2022-10-31T10:53:32.829Z,12.78
2022-10-31T10:58:35.010Z,12.98
2022-10-31T11:03:39.659Z,13.31
2022-10-31T11:08:43.229Z,13.50
2022-10-31T11:13:55.746Z,13.48
2022-10-31T11:24:55.458Z,13.50
2022-10-31T11:30:06.706Z,13.54
2022-10-31T11:35:16.620Z,13.41
2022-10-31T11:40:22.302Z,13.37
2022-10-31T11:45:26.391Z,13.32
2022-10-31T11:50:39.920Z,13.40
2022-10-31T11:55:41.840Z,13.37
2022-10-31T14:32:36.555Z,13.92
2022-10-31T14:38:03.336Z,13.88
2022-10-31T14:43:20.230Z,13.88
2022-10-31T14:48:37.159Z,13.85
2022-10-31T14:53:50.251Z,13.82
2022-10-31T14:58:53.856Z,13.81
2022-10-31T15:09:33.478Z,13.76
2022-10-31T15:14:36.065Z,13.71
2022-10-31T15:19:38.918Z,13.68
2022-10-31T15:24:40.919Z,13.60
2022-10-31T15:29:56.623Z,13.61
2022-10-31T15:35:03.793Z,13.57
2022-10-31T15:40:22.776Z,13.55
2022-10-31T15:45:32.759Z,13.53
2022-10-31T15:50:46.217Z,13.48
2022-10-31T15:56:07.992Z,13.46
2022-10-31T16:01:47.894Z,13.41
2022-10-31T16:07:13.085Z,13.42
2022-10-31T16:12:19.948Z,13.39
2022-10-31T16:17:31.082Z,13.38
2022-10-31T16:22:39.348Z,13.36
2022-10-31T16:27:42.351Z,13.30
2022-10-31T16:32:56.316Z,13.31
2022-10-31T16:37:58.462Z,13.31
2022-10-31T16:43:02.258Z,13.27
2022-10-31T16:48:13.544Z,13.19
2022-10-31T16:53:18.378Z,13.13
2022-10-31T16:58:24.226Z,13.16
2022-10-31T17:03:26.423Z,13.14
2022-10-31T17:08:28.106Z,13.13
2022-10-31T17:13:33.930Z,13.10
2022-10-31T17:18:35.657Z,13.05
2022-10-31T17:23:38.654Z,13.05
2022-10-31T17:28:40.642Z,13.11
2022-10-31T17:33:43.356Z,13.11
2022-10-31T17:38:45.202Z,13.10
2022-10-31T17:43:46.934Z,13.05
2022-10-31T17:48:49.434Z,13.00
2022-10-31T17:53:51.240Z,12.96
2022-10-31T17:58:53.161Z,12.96
2022-10-31T18:03:55.547Z,12.97
2022-10-31T18:08:58.340Z,12.95
2022-10-31T18:14:00.313Z,12.90
2022-10-31T18:19:02.378Z,12.86
2022-10-31T18:24:04.636Z,12.86
2022-10-31T18:29:06.525Z,12.84
2022-10-31T18:34:08.312Z,12.85
2022-10-31T18:39:11.391Z,12.83
2022-10-31T18:44:13.122Z,12.80
2022-10-31T18:49:15.662Z,12.79
2022-10-31T18:54:18.134Z,12.72
2022-10-31T18:59:19.931Z,12.75
2022-10-31T19:04:21.848Z,12.69
2022-10-31T19:09:24.444Z,12.61
2022-10-31T19:14:26.242Z,12.58
2022-10-31T19:19:27.976Z,12.56
2022-10-31T19:24:29.793Z,12.57
2022-10-31T19:29:31.419Z,12.56
2022-10-31T19:34:33.266Z,12.55
2022-10-31T19:39:38.637Z,12.53
2022-10-31T19:44:43.032Z,12.50
2022-10-31T19:49:44.960Z,12.46
2022-10-31T19:54:46.676Z,12.45
2022-10-31T19:59:48.598Z,12.46
2022-10-31T20:04:50.284Z,12.47
2022-10-31T20:09:53.077Z,12.50
2022-10-31T20:14:54.807Z,12.54
2022-10-31T20:19:56.723Z,12.55
2022-10-31T20:24:58.506Z,12.59
2022-10-31T20:30:00.287Z,12.61
2022-10-31T20:35:02.063Z,12.62
2022-10-31T20:40:03.967Z,12.61
2022-10-31T20:45:06.008Z,12.59
2022-10-31T20:50:08.111Z,12.60
2022-10-31T20:55:09.794Z,12.59
2022-10-31T21:00:12.615Z,12.61
2022-10-31T21:05:16.351Z,12.63
2022-10-31T21:10:30.570Z,12.67
2022-10-31T21:15:32.672Z,12.68
2022-10-31T21:20:44.749Z,12.68
2022-10-31T21:25:47.778Z,12.65
2022-10-31T21:30:57.241Z,12.70
2022-10-31T21:35:58.985Z,12.67
2022-10-31T21:41:08.984Z,12.66
2022-10-31T21:46:16.968Z,12.66
2022-10-31T21:51:22.239Z,12.66
2022-10-31T21:56:24.834Z,12.65
2022-10-31T22:01:28.991Z,12.61
2022-10-31T22:06:31.156Z,12.60
2022-10-31T22:11:34.441Z,12.59
2022-10-31T22:16:36.756Z,12.60
2022-10-31T22:21:46.643Z,12.57
2022-10-31T22:26:48.406Z,12.59
2022-10-31T22:31:57.233Z,12.58
2022-10-31T22:37:02.203Z,12.59
2022-10-31T22:42:03.957Z,12.59
2022-10-31T22:47:05.609Z,12.58
2022-10-31T22:52:07.442Z,12.55
2022-10-31T22:57:09.220Z,12.46
2022-10-31T23:02:12.573Z,12.50
2022-10-31T23:07:15.744Z,12.35
2022-10-31T23:12:36.733Z,12.33
2022-10-31T23:17:39.169Z,12.33
2022-10-31T23:22:41.611Z,12.25
2022-10-31T23:27:43.271Z,12.25
2022-10-31T23:32:45.151Z,12.25
2022-10-31T23:37:46.813Z,12.21
2022-10-31T23:42:48.414Z,12.17
2022-10-31T23:47:50.043Z,12.21
2022-10-31T23:52:51.743Z,12.19
2022-10-31T23:57:53.497Z,12.22
